createdAt,value
2022-12-28T00:02:14.416Z,2.32
2022-12-28T00:04:41.151Z,2.40
2022-12-28T00:07:07.974Z,2.45
2022-12-28T00:09:34.733Z,2.28
2022-12-28T00:12:01.360Z,2.40
2022-12-28T00:14:28.063Z,2.43
2022-12-28T00:16:54.884Z,2.42
2022-12-28T00:19:22.477Z,2.57
2022-12-28T00:21:49.209Z,2.59
2022-12-28T00:24:18.912Z,2.40
2022-12-28T00:26:45.635Z,2.38
2022-12-28T00:29:12.343Z,2.54
2022-12-28T00:31:39.050Z,2.01
2022-12-28T00:34:05.967Z,2.00
2022-12-28T00:37:10.803Z,2.07
2022-12-28T00:39:22.318Z,2.23
2022-12-28T00:41:49.077Z,2.08
2022-12-28T00:44:15.742Z,2.18
2022-12-28T00:46:42.463Z,2.10
2022-12-28T00:49:09.093Z,2.15
2022-12-28T00:51:35.784Z,1.93
2022-12-28T00:54:02.454Z,1.79
2022-12-28T00:56:29.112Z,1.58
2022-12-28T00:58:57.415Z,1.69
2022-12-28T01:01:24.194Z,1.93
2022-12-28T01:03:51.111Z,1.85
2022-12-28T01:06:18.867Z,1.66
2022-12-28T01:08:45.659Z,1.59
2022-12-28T01:11:23.221Z,1.75
2022-12-28T01:13:50.655Z,1.57
2022-12-28T01:16:22.087Z,1.49
2022-12-28T01:18:48.878Z,1.84
2022-12-28T01:21:17.048Z,1.66
2022-12-28T01:23:44.743Z,1.52
2022-12-28T01:26:11.380Z,1.55
2022-12-28T01:28:37.977Z,1.43
2022-12-28T01:31:09.000Z,1.81
2022-12-28T01:33:35.722Z,1.97
2022-12-28T01:36:13.611Z,1.78
2022-12-28T01:38:40.255Z,1.70
2022-12-28T01:41:08.026Z,1.95
2022-12-28T01:43:46.244Z,2.06
2022-12-28T01:46:18.083Z,2.34
2022-12-28T01:49:05.908Z,2.29
2022-12-28T01:51:35.072Z,2.52
2022-12-28T01:54:01.768Z,2.63
2022-12-28T01:56:28.443Z,2.42
2022-12-28T01:58:55.466Z,2.57
2022-12-28T02:01:22.128Z,2.46
2022-12-28T02:03:48.792Z,2.52
2022-12-28T02:06:15.506Z,2.62
2022-12-28T02:08:50.671Z,2.59
2022-12-28T02:11:18.657Z,2.48
2022-12-28T02:13:46.796Z,2.58
2022-12-28T02:16:13.597Z,2.48
2022-12-28T02:18:40.742Z,2.45
2022-12-28T02:21:14.217Z,2.27
2022-12-28T02:23:43.641Z,2.15
2022-12-28T02:26:19.096Z,2.17
2022-12-28T02:29:10.236Z,2.49
2022-12-28T02:32:17.239Z,2.78
2022-12-28T02:34:48.918Z,2.84
2022-12-28T02:37:24.649Z,2.77
2022-12-28T02:39:57.241Z,2.71
2022-12-28T02:42:24.332Z,2.64
2022-12-28T02:45:09.591Z,2.43
2022-12-28T02:47:54.972Z,2.49
2022-12-28T02:50:21.819Z,2.31
2022-12-28T02:53:00.677Z,2.25
2022-12-28T02:56:10.174Z,2.45
2022-12-28T02:58:47.827Z,2.64
2022-12-28T03:01:33.009Z,2.54
2022-12-28T03:04:14.896Z,2.68
2022-12-28T03:07:19.033Z,2.58
2022-12-28T03:10:03.994Z,2.71
2022-12-28T03:13:34.170Z,2.57
2022-12-28T03:16:07.101Z,2.74
2022-12-28T03:18:52.287Z,2.83
2022-12-28T03:21:37.396Z,2.75
2022-12-28T03:24:22.635Z,2.78
2022-12-28T03:27:09.392Z,2.77
2022-12-28T03:30:02.022Z,2.85
2022-12-28T03:32:28.917Z,2.90
2022-12-28T03:34:55.589Z,2.75
2022-12-28T03:37:28.223Z,2.49
2022-12-28T03:40:03.402Z,2.44
2022-12-28T03:43:06.905Z,2.59
2022-12-28T03:45:46.389Z,2.76
2022-12-28T03:48:14.035Z,2.85
2022-12-28T03:50:41.657Z,2.74
2022-12-28T03:53:08.884Z,2.82
2022-12-28T03:55:37.995Z,2.98
2022-12-28T03:58:05.544Z,3.01
2022-12-28T04:00:32.621Z,2.79
2022-12-28T04:02:59.301Z,3.16
2022-12-28T04:05:25.944Z,3.19
2022-12-28T04:07:52.616Z,3.21
2022-12-28T04:10:19.289Z,3.28
2022-12-28T04:12:45.929Z,3.28
2022-12-28T04:15:12.591Z,3.12
2022-12-28T04:17:39.335Z,3.12
2022-12-28T04:20:06.557Z,3.00
2022-12-28T04:22:33.224Z,2.88
2022-12-28T04:24:59.949Z,2.89
2022-12-28T04:27:26.580Z,3.10
2022-12-28T04:29:53.182Z,3.00
2022-12-28T04:32:19.878Z,3.00
2022-12-28T04:34:48.729Z,3.13
2022-12-28T04:37:15.818Z,3.01
2022-12-28T04:39:55.665Z,2.91
2022-12-28T04:42:25.176Z,2.83
2022-12-28T04:44:51.868Z,2.76
2022-12-28T04:47:18.471Z,2.78
2022-12-28T04:49:45.241Z,2.76
2022-12-28T04:52:11.844Z,2.66
2022-12-28T04:54:38.545Z,2.18
2022-12-28T04:57:05.179Z,2.26
2022-12-28T04:59:31.763Z,2.14
2022-12-28T05:01:58.426Z,2.00
2022-12-28T05:04:25.276Z,2.15
2022-12-28T05:06:51.935Z,2.17
2022-12-28T05:09:19.507Z,2.08
2022-12-28T05:11:46.856Z,1.85
2022-12-28T05:14:13.572Z,2.06
2022-12-28T05:16:40.330Z,1.94
2022-12-28T05:19:07.030Z,2.15
2022-12-28T05:21:33.715Z,1.59
2022-12-28T05:24:00.648Z,1.93
2022-12-28T05:26:29.189Z,1.97
2022-12-28T05:28:56.274Z,2.21
2022-12-28T05:31:23.187Z,2.24
2022-12-28T05:33:49.999Z,2.00
2022-12-28T05:36:18.285Z,1.93
2022-12-28T05:38:45.047Z,2.20
2022-12-28T05:41:20.381Z,2.46
2022-12-28T05:43:47.319Z,2.37
2022-12-28T05:46:16.487Z,2.40
2022-12-28T05:48:43.591Z,2.69
2022-12-28T05:51:12.057Z,2.97
2022-12-28T05:53:38.765Z,2.83
2022-12-28T05:56:14.603Z,2.76
2022-12-28T05:58:42.496Z,2.90
2022-12-28T06:01:19.834Z,2.85
2022-12-28T06:03:47.747Z,2.58
2022-12-28T06:06:16.046Z,2.66
2022-12-28T06:08:42.971Z,2.75
2022-12-28T06:11:11.426Z,2.62
2022-12-28T06:13:38.168Z,2.66
2022-12-28T06:16:09.243Z,2.54
2022-12-28T06:18:36.045Z,2.83
2022-12-28T06:21:29.478Z,2.77
2022-12-28T06:23:57.845Z,2.68
2022-12-28T06:26:24.717Z,2.75
2022-12-28T06:28:51.566Z,2.66
2022-12-28T06:31:29.197Z,2.68
2022-12-28T06:33:57.618Z,2.89
2022-12-28T06:36:26.103Z,2.78
2022-12-28T06:38:53.611Z,3.00
2022-12-28T06:41:20.648Z,3.08
2022-12-28T06:43:47.738Z,2.97
2022-12-28T06:46:15.427Z,3.25
2022-12-28T06:48:42.336Z,3.49
2022-12-28T06:51:14.654Z,3.55
2022-12-28T06:53:41.684Z,3.56
2022-12-28T06:56:16.113Z,3.39
2022-12-28T06:58:42.909Z,3.58
2022-12-28T07:01:14.015Z,3.60
2022-12-28T07:03:41.249Z,3.52
2022-12-28T07:06:07.984Z,3.45
2022-12-28T07:08:34.676Z,3.51
2022-12-28T07:11:12.490Z,3.51
2022-12-28T07:13:39.196Z,3.54
2022-12-28T07:16:07.642Z,3.52
2022-12-28T07:18:34.403Z,3.60
2022-12-28T07:21:06.027Z,3.86
2022-12-28T07:23:32.688Z,3.83
2022-12-28T07:26:07.951Z,3.79
2022-12-28T07:28:37.371Z,3.97
2022-12-28T07:31:14.447Z,3.92
2022-12-28T07:33:41.448Z,3.95
2022-12-28T07:36:09.158Z,4.25
2022-12-28T07:38:35.896Z,4.28
2022-12-28T07:41:18.872Z,4.17
2022-12-28T07:43:45.486Z,4.10
2022-12-28T07:46:23.285Z,4.21
2022-12-28T07:48:50.297Z,4.13
2022-12-28T07:51:19.007Z,4.34
2022-12-28T07:53:46.747Z,4.46
2022-12-28T07:56:13.507Z,4.36
2022-12-28T08:01:10.682Z,4.36
2022-12-28T08:03:37.617Z,4.48
2022-12-28T08:06:11.312Z,4.38
2022-12-28T08:08:39.043Z,4.56
2022-12-28T08:11:06.745Z,4.61
2022-12-28T08:13:34.679Z,4.61
2022-12-28T08:16:01.462Z,4.70
2022-12-28T08:18:28.244Z,4.95
2022-12-28T08:20:54.909Z,5.00
2022-12-28T08:23:21.710Z,4.95
2022-12-28T08:25:48.445Z,4.93
2022-12-28T08:28:15.114Z,5.25
2022-12-28T08:30:41.835Z,5.02
2022-12-28T08:33:08.483Z,5.20
2022-12-28T08:35:35.145Z,5.13
2022-12-28T08:38:01.871Z,5.29
2022-12-28T08:40:30.043Z,5.17
2022-12-28T08:42:58.916Z,5.19
2022-12-28T08:45:26.313Z,5.32
2022-12-28T08:47:53.213Z,5.44
2022-12-28T08:50:27.979Z,5.64
2022-12-28T08:52:58.055Z,5.86
2022-12-28T08:55:24.631Z,5.78
2022-12-28T08:57:51.212Z,5.66
2022-12-28T09:00:18.164Z,5.45
2022-12-28T09:02:44.847Z,5.70
2022-12-28T09:05:11.506Z,5.61
2022-12-28T09:08:37.096Z,5.32
2022-12-28T09:11:04.233Z,5.33
2022-12-28T09:13:32.493Z,5.49
2022-12-28T09:16:01.027Z,5.52
2022-12-28T09:18:27.751Z,5.66
2022-12-28T09:20:54.461Z,5.71
2022-12-28T09:23:21.135Z,5.70
2022-12-28T09:25:47.815Z,5.80
2022-12-28T09:28:14.687Z,5.85
2022-12-28T09:30:41.380Z,5.75
2022-12-28T09:33:26.533Z,6.00
2022-12-28T09:35:59.637Z,6.00
2022-12-28T09:38:26.374Z,6.08
2022-12-28T09:40:52.982Z,6.12
2022-12-28T09:43:19.761Z,6.13
2022-12-28T09:45:46.384Z,6.17
2022-12-28T09:48:14.857Z,6.06
2022-12-28T09:50:41.984Z,6.23
2022-12-28T09:53:29.365Z,6.30
2022-12-28T09:56:05.010Z,6.46
2022-12-28T09:58:33.140Z,6.67
2022-12-28T10:01:00.727Z,6.61
2022-12-28T10:03:40.577Z,6.57
2022-12-28T10:06:15.326Z,6.81
2022-12-28T10:08:46.940Z,6.86
2022-12-28T10:11:17.241Z,7.02
2022-12-28T10:13:59.191Z,6.87
2022-12-28T10:16:27.907Z,6.62
2022-12-28T10:18:54.753Z,6.52
2022-12-28T10:21:26.833Z,6.83
2022-12-28T10:26:45.122Z,6.73
2022-12-28T10:29:22.842Z,6.67
2022-12-28T10:32:06.723Z,6.76
2022-12-28T10:34:34.679Z,7.03
2022-12-28T10:37:06.215Z,7.13
2022-12-28T10:39:40.874Z,7.28
2022-12-28T10:42:20.852Z,7.40
2022-12-28T10:44:48.521Z,7.14
2022-12-28T10:47:28.419Z,7.46
2022-12-28T10:50:18.873Z,7.57
2022-12-28T10:52:41.757Z,7.44
2022-12-28T10:55:31.130Z,7.81
2022-12-28T10:58:31.116Z,7.72
2022-12-28T11:01:04.820Z,7.42
2022-12-28T11:03:35.809Z,7.54
2022-12-28T11:06:09.705Z,7.77
2022-12-28T11:08:37.106Z,7.70
2022-12-28T11:11:03.871Z,7.45
2022-12-28T11:13:30.583Z,7.71
2022-12-28T11:15:57.378Z,7.40
2022-12-28T11:18:24.100Z,7.55
2022-12-28T11:20:51.896Z,8.00
2022-12-28T11:23:20.441Z,8.06
2022-12-28T11:25:47.059Z,8.50
2022-12-28T11:28:16.249Z,8.67
2022-12-28T11:30:46.274Z,9.03
2022-12-28T11:33:38.219Z,9.16
2022-12-28T11:36:09.876Z,9.38
2022-12-28T11:38:41.025Z,8.88
2022-12-28T11:41:23.180Z,8.92
2022-12-28T11:43:53.428Z,8.95
2022-12-28T11:46:22.742Z,8.64
2022-12-28T11:49:01.629Z,8.63
2022-12-28T11:51:37.655Z,8.80
2022-12-28T11:54:06.083Z,8.84
2022-12-28T11:56:44.824Z,8.74
2022-12-28T11:59:32.220Z,8.61
2022-12-28T12:02:08.323Z,8.87
2022-12-28T12:04:40.121Z,8.66
2022-12-28T12:07:08.273Z,8.49
2022-12-28T12:09:38.597Z,8.47
2022-12-28T12:12:17.708Z,8.93
2022-12-28T12:14:49.786Z,9.36
2022-12-28T12:17:22.827Z,9.32
2022-12-28T12:19:52.281Z,9.15
2022-12-28T12:22:22.132Z,8.53
2022-12-28T12:24:54.517Z,8.52
2022-12-28T12:27:32.473Z,8.07
2022-12-28T12:30:06.927Z,8.70
2022-12-28T12:32:54.632Z,9.21
2022-12-28T12:35:28.313Z,9.16
2022-12-28T12:37:54.923Z,9.35
2022-12-28T12:40:37.275Z,9.16
2022-12-28T12:43:30.118Z,8.68
2022-12-28T12:46:10.990Z,8.47
2022-12-28T12:48:49.792Z,8.36
2022-12-28T12:51:25.285Z,8.71
2022-12-28T12:54:07.272Z,8.99
2022-12-28T12:57:01.404Z,9.06
2022-12-28T12:59:49.483Z,9.27
2022-12-28T13:02:34.892Z,9.43
2022-12-28T13:05:02.629Z,9.45
2022-12-28T13:07:29.238Z,9.35
2022-12-28T13:09:57.894Z,9.62
2022-12-28T13:12:24.518Z,9.37
2022-12-28T13:15:01.216Z,9.50
2022-12-28T13:17:28.218Z,9.55
2022-12-28T13:20:26.261Z,9.24
2022-12-28T13:22:53.007Z,8.96
2022-12-28T13:25:29.788Z,8.88
2022-12-28T13:27:57.227Z,8.77
2022-12-28T13:30:24.376Z,8.96
2022-12-28T13:32:56.130Z,8.68
2022-12-28T13:35:33.044Z,8.83
2022-12-28T13:38:08.677Z,8.74
2022-12-28T13:40:35.496Z,8.85
2022-12-28T13:43:21.857Z,8.83
2022-12-28T13:45:52.075Z,8.81
2022-12-28T13:48:19.363Z,8.71
2022-12-28T13:50:46.169Z,8.60
2022-12-28T13:53:14.308Z,8.50
2022-12-28T13:56:14.467Z,8.59
2022-12-28T13:58:48.067Z,8.29
2022-12-28T14:01:16.916Z,8.28
2022-12-28T14:03:46.486Z,8.30
2022-12-28T14:06:14.455Z,8.28
2022-12-28T14:08:42.015Z,8.07
2022-12-28T14:11:08.849Z,7.85
2022-12-28T14:13:36.078Z,7.76
2022-12-28T14:16:03.046Z,7.60
2022-12-28T14:18:30.258Z,7.65
2022-12-28T14:20:58.157Z,7.62
2022-12-28T14:23:29.039Z,7.47
2022-12-28T14:25:57.864Z,7.57
2022-12-28T14:28:37.701Z,7.64
2022-12-28T14:31:05.321Z,7.54
2022-12-28T14:33:34.653Z,7.64
2022-12-28T14:36:03.114Z,7.66
2022-12-28T14:38:40.491Z,7.59
2022-12-28T14:41:07.189Z,7.44
2022-12-28T14:43:34.657Z,7.59
2022-12-28T14:46:34.587Z,7.42
2022-12-28T14:49:21.626Z,7.46
2022-12-28T14:51:48.361Z,7.26
2022-12-28T14:54:22.050Z,7.19
2022-12-28T14:56:53.789Z,6.87
2022-12-28T14:59:38.626Z,6.83
2022-12-28T15:02:05.457Z,6.72
2022-12-28T15:04:40.010Z,6.56
2022-12-28T15:07:08.053Z,6.44
2022-12-28T15:09:34.754Z,6.42
2022-12-28T15:12:15.720Z,6.45
2022-12-28T15:14:44.579Z,6.39
2022-12-28T15:17:11.347Z,6.56
2022-12-28T15:19:37.979Z,6.45
2022-12-28T15:22:05.229Z,6.57
2022-12-28T15:24:34.328Z,6.55
2022-12-28T15:27:04.967Z,6.40
2022-12-28T15:30:03.796Z,6.53
2022-12-28T15:32:18.508Z,6.35
2022-12-28T15:34:45.200Z,6.26
2022-12-28T15:37:11.852Z,6.20
2022-12-28T15:39:38.455Z,6.20
2022-12-28T15:42:05.177Z,6.17
2022-12-28T15:44:31.810Z,6.20
2022-12-28T15:46:58.546Z,6.01
2022-12-28T15:49:25.177Z,6.01
2022-12-28T15:51:51.876Z,5.76
2022-12-28T15:54:18.945Z,5.81
2022-12-28T15:56:52.494Z,5.70
2022-12-28T15:59:19.459Z,5.41
2022-12-28T16:01:47.393Z,5.47
2022-12-28T16:04:14.262Z,5.68
2022-12-28T16:06:44.640Z,5.75
2022-12-28T16:09:12.456Z,5.53
2022-12-28T16:11:39.141Z,5.37
2022-12-28T16:14:06.666Z,5.49
2022-12-28T16:16:38.003Z,5.50
2022-12-28T16:19:04.900Z,5.41
2022-12-28T16:21:31.514Z,5.45
2022-12-28T16:23:59.224Z,5.36
2022-12-28T16:26:26.015Z,5.47
2022-12-28T16:28:52.736Z,5.46
2022-12-28T16:31:30.445Z,5.51
2022-12-28T16:34:00.988Z,5.61
2022-12-28T16:36:27.817Z,5.38
2022-12-28T16:38:54.813Z,5.48
2022-12-28T16:41:21.532Z,5.55
2022-12-28T16:43:48.568Z,5.56
2022-12-28T16:46:15.371Z,5.77
2022-12-28T16:48:42.071Z,5.62
2022-12-28T16:51:08.872Z,5.56
2022-12-28T16:53:36.815Z,5.58
2022-12-28T16:56:04.686Z,5.55
2022-12-28T16:58:31.333Z,5.58
2022-12-28T17:00:58.249Z,5.53
2022-12-28T17:03:25.597Z,5.41
2022-12-28T17:05:52.558Z,5.41
2022-12-28T17:08:19.436Z,5.28
2022-12-28T17:10:46.535Z,5.12
2022-12-28T17:13:13.195Z,5.04
2022-12-28T17:15:39.946Z,5.23
2022-12-28T17:18:06.924Z,5.00
2022-12-28T17:20:36.932Z,5.06
2022-12-28T17:23:03.969Z,4.71
2022-12-28T17:25:31.929Z,5.03
2022-12-28T17:27:58.932Z,4.94
2022-12-28T17:30:26.559Z,4.98
2022-12-28T17:32:53.441Z,5.17
2022-12-28T17:35:20.071Z,4.94
2022-12-28T17:37:46.656Z,4.82
2022-12-28T17:40:13.405Z,5.04
2022-12-28T17:42:40.137Z,4.95
2022-12-28T17:45:11.514Z,4.86
2022-12-28T17:47:38.768Z,4.99
2022-12-28T17:50:06.408Z,4.97
2022-12-28T17:52:33.061Z,5.12
2022-12-28T17:54:59.760Z,5.04
2022-12-28T17:57:26.403Z,5.14
2022-12-28T17:59:53.084Z,5.00
2022-12-28T18:02:19.811Z,4.79
2022-12-28T18:04:46.637Z,4.79
2022-12-28T18:07:13.326Z,4.78
2022-12-28T18:09:39.916Z,4.90
2022-12-28T18:12:06.637Z,4.86
2022-12-28T18:14:33.466Z,4.70
2022-12-28T18:17:00.287Z,4.81
2022-12-28T18:19:26.920Z,4.72
2022-12-28T18:21:53.625Z,4.73
2022-12-28T18:24:21.090Z,4.71
2022-12-28T18:26:48.074Z,4.66
2022-12-28T18:29:14.850Z,4.81
2022-12-28T18:31:41.608Z,4.72
2022-12-28T18:34:08.514Z,4.64
2022-12-28T18:36:35.273Z,4.74
2022-12-28T18:39:02.885Z,4.71
2022-12-28T18:41:33.982Z,4.81
2022-12-28T18:44:02.983Z,4.80
2022-12-28T18:46:29.964Z,4.76
2022-12-28T18:48:56.990Z,4.52
2022-12-28T18:51:23.605Z,4.72
2022-12-28T18:53:50.971Z,4.79
2022-12-28T18:56:21.270Z,4.73
2022-12-28T18:58:55.293Z,4.74
2022-12-28T19:04:12.897Z,4.79
2022-12-28T19:06:39.972Z,4.87
2022-12-28T19:09:07.093Z,4.95
2022-12-28T19:11:34.408Z,4.97
2022-12-28T19:14:05.185Z,5.08
2022-12-28T19:16:32.516Z,4.98
2022-12-28T19:19:02.535Z,4.92
2022-12-28T19:21:33.018Z,4.84
2022-12-28T19:24:04.612Z,4.70
2022-12-28T19:26:31.835Z,4.76
2022-12-28T19:28:58.499Z,4.97
2022-12-28T19:31:25.241Z,4.86
2022-12-28T19:33:52.022Z,4.82
2022-12-28T19:36:18.705Z,4.91
2022-12-28T19:38:45.621Z,4.90
2022-12-28T19:41:16.343Z,4.94
2022-12-28T19:43:43.523Z,5.23
2022-12-28T19:46:15.127Z,4.97
2022-12-28T19:48:41.889Z,4.91
2022-12-28T19:51:08.575Z,4.91
2022-12-28T19:53:35.274Z,4.89
2022-12-28T19:56:05.765Z,4.83
2022-12-28T19:58:33.159Z,4.80
2022-12-28T20:01:07.407Z,5.08
2022-12-28T20:03:34.500Z,4.92
2022-12-28T20:06:21.845Z,4.99
2022-12-28T20:08:49.804Z,4.95
2022-12-28T20:11:16.895Z,4.92
2022-12-28T20:13:44.727Z,4.93
2022-12-28T20:16:11.509Z,4.90
2022-12-28T20:18:38.191Z,4.88
2022-12-28T20:21:22.073Z,4.88
2022-12-28T20:23:49.769Z,4.88
2022-12-28T20:26:17.253Z,4.88
2022-12-28T20:28:44.233Z,4.82
2022-12-28T20:31:12.350Z,4.85
2022-12-28T20:33:39.030Z,4.80
2022-12-28T20:36:07.668Z,4.84
2022-12-28T20:38:34.728Z,4.88
2022-12-28T20:41:39.035Z,5.02
2022-12-28T20:44:10.553Z,5.07
2022-12-28T20:46:37.345Z,4.92
2022-12-28T20:49:04.609Z,4.83
2022-12-28T20:51:31.197Z,4.98
2022-12-28T20:53:57.891Z,4.90
2022-12-28T20:56:24.590Z,5.10
2022-12-28T20:58:51.350Z,4.93
2022-12-28T21:01:18.222Z,5.12
2022-12-28T21:03:45.071Z,4.82
2022-12-28T21:06:11.823Z,4.74
2022-12-28T21:08:38.552Z,4.81
2022-12-28T21:11:05.435Z,4.86
2022-12-28T21:13:32.058Z,4.74
2022-12-28T21:15:59.251Z,4.76
2022-12-28T21:18:26.019Z,4.77
2022-12-28T21:20:58.809Z,4.80
2022-12-28T21:23:26.224Z,4.79
2022-12-28T21:25:52.908Z,4.90
2022-12-28T21:28:19.585Z,4.83
2022-12-28T21:30:53.398Z,4.77
2022-12-28T21:33:20.019Z,4.86
2022-12-28T21:35:59.773Z,4.79
2022-12-28T21:38:26.562Z,4.82
2022-12-28T21:40:57.997Z,4.70
2022-12-28T21:43:24.635Z,4.44
2022-12-28T21:46:02.447Z,4.51
2022-12-28T21:48:33.118Z,4.48
2022-12-28T21:51:04.674Z,4.47
2022-12-28T21:53:31.361Z,4.69
2022-12-28T21:55:58.010Z,4.77
2022-12-28T21:58:24.684Z,4.66
2022-12-28T22:01:10.212Z,4.61
2022-12-28T22:03:55.389Z,4.87
2022-12-28T22:06:22.079Z,4.76
2022-12-28T22:09:07.390Z,4.82
2022-12-28T22:11:52.756Z,4.64
2022-12-28T22:14:19.454Z,4.62
2022-12-28T22:16:46.267Z,4.64
2022-12-28T22:19:13.104Z,4.51
2022-12-28T22:21:39.739Z,4.53
2022-12-28T22:24:06.558Z,4.59
2022-12-28T22:26:33.278Z,4.45
2022-12-28T22:28:59.921Z,4.30
2022-12-28T22:31:26.640Z,4.58
2022-12-28T22:33:55.036Z,4.42
2022-12-28T22:36:21.756Z,4.41
2022-12-28T22:38:48.499Z,4.38
2022-12-28T22:41:15.224Z,4.60
2022-12-28T22:43:41.911Z,4.70
2022-12-28T22:46:10.203Z,4.69
2022-12-28T22:48:37.226Z,4.44
2022-12-28T22:51:22.045Z,4.44
2022-12-28T22:53:50.065Z,4.38
2022-12-28T22:56:20.085Z,4.33
2022-12-28T22:58:47.684Z,4.43
2022-12-28T23:01:16.265Z,4.41
2022-12-28T23:03:44.473Z,4.40
2022-12-28T23:06:12.352Z,4.57
2022-12-28T23:08:39.233Z,4.43
2022-12-28T23:11:26.965Z,4.49
2022-12-28T23:13:53.588Z,4.37
2022-12-28T23:16:20.234Z,4.31
2022-12-28T23:19:05.883Z,4.28
2022-12-28T23:21:51.312Z,4.30
2022-12-28T23:24:36.543Z,3.78
2022-12-28T23:27:21.127Z,3.52
2022-12-28T23:29:47.757Z,3.62
2022-12-28T23:32:14.543Z,3.59
2022-12-28T23:34:41.218Z,3.45
2022-12-28T23:37:07.880Z,2.85
2022-12-28T23:39:34.610Z,3.03
2022-12-28T23:42:01.313Z,3.06
2022-12-28T23:44:29.227Z,2.91
2022-12-28T23:46:59.322Z,3.00
2022-12-28T23:49:26.470Z,3.15
2022-12-28T23:51:53.145Z,3.35
2022-12-28T23:54:20.119Z,3.34
2022-12-28T23:56:47.095Z,3.57
2022-12-28T23:59:13.784Z,3.47
